sensor_id;sensor_type;location;lat;lon;timestamp;pressure;altitude;pressure_sealevel;temperature;humidity
10806;BME280;5455;53.224;6.000;2023-04-15T00:01:06;101072.91;;;6.65;100.00
10806;BME280;5455;53.224;6.000;2023-04-15T00:03:33;101070.16;;;6.65;100.00
10806;BME280;5455;53.224;6.000;2023-04-15T00:06:01;101080.31;;;6.64;100.00
10806;BME280;5455;53.224;6.000;2023-04-15T00:08:29;101080.97;;;6.61;100.00
10806;BME280;5455;53.224;6.000;2023-04-15T00:10:56;101066.63;;;6.56;100.00
10806;BME280;5455;53.224;6.000;2023-04-15T00:13:28;101065.84;;;6.55;100.00
10806;BME280;5455;53.224;6.000;2023-04-15T00:15:56;101073.59;;;6.53;100.00
10806;BME280;5455;53.224;6.000;2023-04-15T00:18:23;101071.16;;;6.52;100.00
10806;BME280;5455;53.224;6.000;2023-04-15T00:20:50;101068.09;;;6.53;100.00
10806;BME280;5455;53.224;6.000;2023-04-15T00:23:18;101066.00;;;6.50;100.00
10806;BME280;5455;53.224;6.000;2023-04-15T00:25:45;101067.78;;;6.46;100.00
10806;BME280;5455;53.224;6.000;2023-04-15T00:28:12;101065.56;;;6.40;100.00
10806;BME280;5455;53.224;6.000;2023-04-15T00:30:39;101080.84;;;6.41;100.00
10806;BME280;5455;53.224;6.000;2023-04-15T00:33:08;101070.88;;;6.36;100.00
10806;BME280;5455;53.224;6.000;2023-04-15T00:35:35;101071.84;;;6.32;100.00
10806;BME280;5455;53.224;6.000;2023-04-15T00:38:04;101070.09;;;6.27;100.00
10806;BME280;5455;53.224;6.000;2023-04-15T00:40:31;101073.97;;;6.26;100.00
10806;BME280;5455;53.224;6.000;2023-04-15T00:42:59;101075.25;;;6.20;100.00
10806;BME280;5455;53.224;6.000;2023-04-15T00:45:26;101083.81;;;6.19;100.00
10806;BME280;5455;53.224;6.000;2023-04-15T00:47:57;101084.13;;;6.17;100.00
10806;BME280;5455;53.224;6.000;2023-04-15T00:50:24;101087.50;;;6.14;100.00
10806;BME280;5455;53.224;6.000;2023-04-15T00:52:51;101083.16;;;6.13;100.00
10806;BME280;5455;53.224;6.000;2023-04-15T00:55:18;101089.44;;;6.14;100.00
10806;BME280;5455;53.224;6.000;2023-04-15T00:57:46;101082.38;;;6.13;100.00
10806;BME280;5455;53.224;6.000;2023-04-15T01:00:13;101089.44;;;6.14;100.00
10806;BME280;5455;53.224;6.000;2023-04-15T01:02:40;101083.66;;;6.15;100.00
10806;BME280;5455;53.224;6.000;2023-04-15T01:05:07;101083.94;;;6.14;100.00
10806;BME280;5455;53.224;6.000;2023-04-15T01:07:34;101092.00;;;6.10;100.00
10806;BME280;5455;53.224;6.000;2023-04-15T01:10:02;101087.16;;;6.07;100.00
10806;BME280;5455;53.224;6.000;2023-04-15T01:12:31;101087.03;;;6.03;100.00
10806;BME280;5455;53.224;6.000;2023-04-15T01:15:00;101087.81;;;6.04;100.00
10806;BME280;5455;53.224;6.000;2023-04-15T01:17:28;101090.09;;;6.02;100.00
10806;BME280;5455;53.224;6.000;2023-04-15T01:19:56;101096.66;;;6.01;100.00
10806;BME280;5455;53.224;6.000;2023-04-15T01:22:24;101098.75;;;6.04;100.00
10806;BME280;5455;53.224;6.000;2023-04-15T01:25:01;101095.25;;;6.03;100.00
10806;BME280;5455;53.224;6.000;2023-04-15T01:27:32;101093.28;;;6.04;100.00
10806;BME280;5455;53.224;6.000;2023-04-15T01:30:01;101094.44;;;6.03;100.00
10806;BME280;5455;53.224;6.000;2023-04-15T01:32:31;101096.03;;;6.04;100.00
10806;BME280;5455;53.224;6.000;2023-04-15T01:34:59;101101.84;;;6.02;100.00
10806;BME280;5455;53.224;6.000;2023-04-15T01:37:26;101097.81;;;6.00;100.00
10806;BME280;5455;53.224;6.000;2023-04-15T01:39:53;101099.91;;;6.03;100.00
10806;BME280;5455;53.224;6.000;2023-04-15T01:42:25;101098.28;;;6.02;100.00
10806;BME280;5455;53.224;6.000;2023-04-15T01:44:53;101103.28;;;6.00;100.00
10806;BME280;5455;53.224;6.000;2023-04-15T01:47:20;101097.81;;;6.00;100.00
10806;BME280;5455;53.224;6.000;2023-04-15T01:49:48;101105.53;;;5.98;100.00
10806;BME280;5455;53.224;6.000;2023-04-15T01:52:16;101105.53;;;5.98;100.00
10806;BME280;5455;53.224;6.000;2023-04-15T01:54:43;101102.97;;;5.93;100.00
10806;BME280;5455;53.224;6.000;2023-04-15T01:57:11;101109.41;;;5.88;100.00
10806;BME280;5455;53.224;6.000;2023-04-15T01:59:38;101106.69;;;5.88;100.00
10806;BME280;5455;53.224;6.000;2023-04-15T02:02:05;101100.38;;;5.88;100.00
10806;BME280;5455;53.224;6.000;2023-04-15T02:04:33;101107.44;;;5.89;100.00
10806;BME280;5455;53.224;6.000;2023-04-15T02:07:00;101104.25;;;5.87;100.00
10806;BME280;5455;53.224;6.000;2023-04-15T02:09:28;101108.41;;;5.84;100.00
10806;BME280;5455;53.224;6.000;2023-04-15T02:11:57;101108.22;;;5.81;100.00
10806;BME280;5455;53.224;6.000;2023-04-15T02:14:24;101107.75;;;5.79;100.00
10806;BME280;5455;53.224;6.000;2023-04-15T02:16:53;101106.94;;;5.78;100.00
10806;BME280;5455;53.224;6.000;2023-04-15T02:19:20;101107.41;;;5.80;100.00
10806;BME280;5455;53.224;6.000;2023-04-15T02:21:47;101108.56;;;5.79;100.00
10806;BME280;5455;53.224;6.000;2023-04-15T02:24:16;101119.81;;;5.78;100.00
10806;BME280;5455;53.224;6.000;2023-04-15T02:26:43;101113.53;;;5.77;100.00
10806;BME280;5455;53.224;6.000;2023-04-15T02:29:11;101123.34;;;5.78;100.00
10806;BME280;5455;53.224;6.000;2023-04-15T02:31:39;101125.44;;;5.73;100.00
10806;BME280;5455;53.224;6.000;2023-04-15T02:34:08;101126.91;;;5.70;100.00
10806;BME280;5455;53.224;6.000;2023-04-15T02:36:35;101130.28;;;5.67;100.00
10806;BME280;5455;53.224;6.000;2023-04-15T02:39:04;101132.84;;;5.64;100.00
10806;BME280;5455;53.224;6.000;2023-04-15T02:41:31;101132.84;;;5.64;100.00
10806;BME280;5455;53.224;6.000;2023-04-15T02:43:58;101140.06;;;5.60;100.00
10806;BME280;5455;53.224;6.000;2023-04-15T02:46:26;101139.56;;;5.57;100.00
10806;BME280;5455;53.224;6.000;2023-04-15T02:48:54;101147.44;;;5.50;100.00
10806;BME280;5455;53.224;6.000;2023-04-15T02:51:23;101143.22;;;5.44;100.00
10806;BME280;5455;53.224;6.000;2023-04-15T02:53:50;101145.78;;;5.41;100.00
10806;BME280;5455;53.224;6.000;2023-04-15T02:56:17;101149.03;;;5.43;100.00
10806;BME280;5455;53.224;6.000;2023-04-15T02:58:46;101152.25;;;5.45;100.00
10806;BME280;5455;53.224;6.000;2023-04-15T03:01:16;101155.31;;;5.43;100.00
10806;BME280;5455;53.224;6.000;2023-04-15T03:03:43;101158.53;;;5.45;100.00
10806;BME280;5455;53.224;6.000;2023-04-15T03:06:11;101161.88;;;5.42;100.00
10806;BME280;5455;53.224;6.000;2023-04-15T03:08:38;101167.38;;;5.42;100.00
10806;BME280;5455;53.224;6.000;2023-04-15T03:11:05;101170.72;;;5.39;100.00
10806;BME280;5455;53.224;6.000;2023-04-15T03:13:35;101163.47;;;5.35;100.00
10806;BME280;5455;53.224;6.000;2023-04-15T03:16:09;101166.81;;;5.32;100.00
10806;BME280;5455;53.224;6.000;2023-04-15T03:18:36;101176.66;;;5.33;100.00
10806;BME280;5455;53.224;6.000;2023-04-15T03:21:04;101176.16;;;5.31;100.00
10806;BME280;5455;53.224;6.000;2023-04-15T03:23:34;101175.97;;;5.27;100.00
10806;BME280;5455;53.224;6.000;2023-04-15T03:26:02;101186.44;;;5.25;100.00
10806;BME280;5455;53.224;6.000;2023-04-15T03:28:31;101180.47;;;5.23;100.00
10806;BME280;5455;53.224;6.000;2023-04-15T03:30:59;101184.00;;;5.24;100.00
10806;BME280;5455;53.224;6.000;2023-04-15T03:33:26;101181.28;;;5.24;100.00
10806;BME280;5455;53.224;6.000;2023-04-15T03:35:53;101183.81;;;5.20;100.00
10806;BME280;5455;53.224;6.000;2023-04-15T03:38:20;101180.59;;;5.18;100.00
10806;BME280;5455;53.224;6.000;2023-04-15T03:40:47;101182.06;;;5.16;100.00
10806;BME280;5455;53.224;6.000;2023-04-15T03:43:14;101194.91;;;5.15;100.00
10806;BME280;5455;53.224;6.000;2023-04-15T03:45:42;101184.13;;;5.10;100.00
10806;BME280;5455;53.224;6.000;2023-04-15T03:48:09;101189.41;;;5.07;100.00
10806;BME280;5455;53.224;6.000;2023-04-15T03:50:44;101191.66;;;5.05;100.00
10806;BME280;5455;53.224;6.000;2023-04-15T03:53:12;101198.84;;;5.00;100.00
10806;BME280;5455;53.224;6.000;2023-04-15T03:55:38;101201.88;;;4.99;100.00
10806;BME280;5455;53.224;6.000;2023-04-15T03:58:05;101205.59;;;5.03;100.00
10806;BME280;5455;53.224;6.000;2023-04-15T04:00:33;101205.41;;;4.99;100.00
10806;BME280;5455;53.224;6.000;2023-04-15T04:03:00;101206.84;;;4.97;100.00
10806;BME280;5455;53.224;6.000;2023-04-15T04:05:27;101208.97;;;5.00;100.00
10806;BME280;5455;53.224;6.000;2023-04-15T04:07:54;101219.41;;;4.98;100.00
10806;BME280;5455;53.224;6.000;2023-04-15T04:10:21;101222.16;;;4.98;100.00
10806;BME280;5455;53.224;6.000;2023-04-15T04:12:49;101220.66;;;4.92;100.00
10806;BME280;5455;53.224;6.000;2023-04-15T04:15:15;101221.09;;;4.85;100.00
10806;BME280;5455;53.224;6.000;2023-04-15T04:17:42;101216.06;;;4.79;100.00
10806;BME280;5455;53.224;6.000;2023-04-15T04:20:10;101217.78;;;4.75;100.00
10806;BME280;5455;53.224;6.000;2023-04-15T04:22:38;101222.78;;;4.73;100.00
10806;BME280;5455;53.224;6.000;2023-04-15T04:25:08;101224.19;;;4.70;100.00
10806;BME280;5455;53.224;6.000;2023-04-15T04:27:36;101230.91;;;4.64;100.00
10806;BME280;5455;53.224;6.000;2023-04-15T04:30:04;101231.72;;;4.65;100.00
10806;BME280;5455;53.224;6.000;2023-04-15T04:32:31;101231.19;;;4.63;100.00
10806;BME280;5455;53.224;6.000;2023-04-15T04:34:58;101233.44;;;4.61;100.00
10806;BME280;5455;53.224;6.000;2023-04-15T04:37:26;101239.22;;;4.59;100.00
10806;BME280;5455;53.224;6.000;2023-04-15T04:39:53;101242.25;;;4.58;100.00
10806;BME280;5455;53.224;6.000;2023-04-15T04:42:20;101246.59;;;4.59;100.00
10806;BME280;5455;53.224;6.000;2023-04-15T04:44:47;101240.13;;;4.55;100.00
10806;BME280;5455;53.224;6.000;2023-04-15T04:47:15;101245.59;;;4.55;100.00
10806;BME280;5455;53.224;6.000;2023-04-15T04:49:42;101244.91;;;4.49;100.00
10806;BME280;5455;53.224;6.000;2023-04-15T04:52:09;101244.91;;;4.49;100.00
10806;BME280;5455;53.224;6.000;2023-04-15T04:54:35;101249.44;;;4.54;100.00
10806;BME280;5455;53.224;6.000;2023-04-15T04:57:02;101248.53;;;4.58;100.00
10806;BME280;5455;53.224;6.000;2023-04-15T04:59:29;101250.94;;;4.60;100.00
10806;BME280;5455;53.224;6.000;2023-04-15T05:01:57;101259.03;;;4.65;100.00
10806;BME280;5455;53.224;6.000;2023-04-15T05:04:24;101259.84;;;4.65;100.00
10806;BME280;5455;53.224;6.000;2023-04-15T05:06:51;101264.16;;;4.66;100.00
10806;BME280;5455;53.224;6.000;2023-04-15T05:09:19;101263.53;;;4.69;100.00
10806;BME280;5455;53.224;6.000;2023-04-15T05:11:46;101265.97;;;4.71;100.00
10806;BME280;5455;53.224;6.000;2023-04-15T05:14:13;101265.03;;;4.75;100.00
10806;BME280;5455;53.224;6.000;2023-04-15T05:16:39;101269.88;;;4.78;100.00
10806;BME280;5455;53.224;6.000;2023-04-15T05:19:06;101274.38;;;4.74;100.00
10806;BME280;5455;53.224;6.000;2023-04-15T05:21:33;101269.81;;;4.70;100.00
10806;BME280;5455;53.224;6.000;2023-04-15T05:24:04;101272.75;;;4.73;100.00
10806;BME280;5455;53.224;6.000;2023-04-15T05:26:31;101278.88;;;4.79;100.00
10806;BME280;5455;53.224;6.000;2023-04-15T05:28:58;101280.19;;;4.81;100.00
10806;BME280;5455;53.224;6.000;2023-04-15T05:31:25;101285.91;;;4.93;100.00
10806;BME280;5455;53.224;6.000;2023-04-15T05:33:52;101288.81;;;4.97;100.00
10806;BME280;5455;53.224;6.000;2023-04-15T05:36:19;101288.06;;;5.05;100.00
10806;BME280;5455;53.224;6.000;2023-04-15T05:38:46;101288.94;;;5.14;100.00
10806;BME280;5455;53.224;6.000;2023-04-15T05:41:13;101288.69;;;5.24;100.00
10806;BME280;5455;53.224;6.000;2023-04-15T05:43:45;101289.50;;;5.25;100.00
10806;BME280;5455;53.224;6.000;2023-04-15T05:46:12;101292.81;;;5.44;100.00
10806;BME280;5455;53.224;6.000;2023-04-15T05:48:39;101294.84;;;5.61;100.00
10806;BME280;5455;53.224;6.000;2023-04-15T05:51:06;101299.72;;;5.72;100.00
10806;BME280;5455;53.224;6.000;2023-04-15T05:53:32;101303.78;;;5.83;100.00
10806;BME280;5455;53.224;6.000;2023-04-15T05:55:59;101308.84;;;5.98;100.00
10806;BME280;5455;53.224;6.000;2023-04-15T05:58:27;101301.84;;;6.15;100.00
10806;BME280;5455;53.224;6.000;2023-04-15T06:00:54;101310.91;;;6.32;100.00
10806;BME280;5455;53.224;6.000;2023-04-15T06:03:21;101310.59;;;6.51;100.00
10806;BME280;5455;53.224;6.000;2023-04-15T06:05:48;101304.03;;;6.69;100.00
10806;BME280;5455;53.224;6.000;2023-04-15T06:08:15;101319.00;;;6.89;100.00
10806;BME280;5455;53.224;6.000;2023-04-15T06:10:42;101325.63;;;7.05;100.00
10806;BME280;5455;53.224;6.000;2023-04-15T06:13:10;101323.19;;;7.20;100.00
10806;BME280;5455;53.224;6.000;2023-04-15T06:15:37;101333.66;;;7.36;100.00
10806;BME280;5455;53.224;6.000;2023-04-15T06:18:04;101346.53;;;7.52;100.00
10806;BME280;5455;53.224;6.000;2023-04-15T06:20:31;101353.44;;;7.67;100.00
10806;BME280;5455;53.224;6.000;2023-04-15T06:22:58;101355.63;;;7.82;100.00
10806;BME280;5455;53.224;6.000;2023-04-15T06:25:25;101350.75;;;7.96;100.00
10806;BME280;5455;53.224;6.000;2023-04-15T06:27:52;101360.41;;;8.11;100.00
10806;BME280;5455;53.224;6.000;2023-04-15T06:30:19;101362.91;;;8.24;100.00
10806;BME280;5455;53.224;6.000;2023-04-15T06:32:49;101366.28;;;8.30;100.00
10806;BME280;5455;53.224;6.000;2023-04-15T06:35:16;101361.75;;;8.34;100.00
10806;BME280;5455;53.224;6.000;2023-04-15T06:37:44;101365.78;;;8.37;100.00
10806;BME280;5455;53.224;6.000;2023-04-15T06:40:11;101368.69;;;8.40;100.00
10806;BME280;5455;53.224;6.000;2023-04-15T06:42:38;101369.16;;;8.42;100.00
10806;BME280;5455;53.224;6.000;2023-04-15T06:45:06;101376.53;;;8.50;100.00
10806;BME280;5455;53.224;6.000;2023-04-15T06:47:33;101380.69;;;8.56;100.00
10806;BME280;5455;53.224;6.000;2023-04-15T06:50:00;101388.41;;;8.63;100.00
10806;BME280;5455;53.224;6.000;2023-04-15T06:52:27;101380.47;;;8.70;100.00
10806;BME280;5455;53.224;6.000;2023-04-15T06:54:54;101384.78;;;8.79;100.00
10806;BME280;5455;53.224;6.000;2023-04-15T06:57:21;101393.09;;;8.92;100.00
10806;BME280;5455;53.224;6.000;2023-04-15T06:59:48;101391.84;;;9.10;100.00
10806;BME280;5455;53.224;6.000;2023-04-15T07:02:16;101394.16;;;9.20;100.00
10806;BME280;5455;53.224;6.000;2023-04-15T07:04:44;101397.31;;;9.30;100.00
10806;BME280;5455;53.224;6.000;2023-04-15T07:07:11;101401.81;;;9.35;100.00
10806;BME280;5455;53.224;6.000;2023-04-15T07:09:38;101407.94;;;9.53;100.00
10806;BME280;5455;53.224;6.000;2023-04-15T07:12:05;101412.16;;;9.71;100.00
10806;BME280;5455;53.224;6.000;2023-04-15T07:14:32;101409.31;;;9.79;100.00
10806;BME280;5455;53.224;6.000;2023-04-15T07:16:59;101416.44;;;9.80;100.00
10806;BME280;5455;53.224;6.000;2023-04-15T07:19:26;101419.94;;;10.02;100.00
10806;BME280;5455;53.224;6.000;2023-04-15T07:21:53;101418.63;;;10.20;100.00
10806;BME280;5455;53.224;6.000;2023-04-15T07:24:20;101424.59;;;10.22;100.00
10806;BME280;5455;53.224;6.000;2023-04-15T07:26:49;101424.47;;;10.18;100.00
10806;BME280;5455;53.224;6.000;2023-04-15T07:29:15;101430.25;;;10.05;100.00
10806;BME280;5455;53.224;6.000;2023-04-15T07:31:42;101441.28;;;10.05;100.00
10806;BME280;5455;53.224;6.000;2023-04-15T07:34:10;101429.13;;;10.06;100.00
10806;BME280;5455;53.224;6.000;2023-04-15T07:36:36;101441.16;;;10.01;100.00
10806;BME280;5455;53.224;6.000;2023-04-15T07:39:03;101443.78;;;9.97;100.00
10806;BME280;5455;53.224;6.000;2023-04-15T07:41:31;101451.34;;;9.88;100.00
10806;BME280;5455;53.224;6.000;2023-04-15T07:43:58;101449.38;;;9.89;100.00
10806;BME280;5455;53.224;6.000;2023-04-15T07:46:25;101443.34;;;9.95;100.00
10806;BME280;5455;53.224;6.000;2023-04-15T07:48:53;101450.47;;;9.96;100.00
10806;BME280;5455;53.224;6.000;2023-04-15T07:51:20;101452.94;;;9.89;100.00
10806;BME280;5455;53.224;6.000;2023-04-15T07:53:48;101448.72;;;9.92;100.00
10806;BME280;5455;53.224;6.000;2023-04-15T07:56:16;101447.44;;;9.89;100.00
10806;BME280;5455;53.224;6.000;2023-04-15T07:58:43;101453.22;;;9.96;100.00
10806;BME280;5455;53.224;6.000;2023-04-15T08:01:10;101465.50;;;9.99;100.00
10806;BME280;5455;53.224;6.000;2023-04-15T08:03:37;101458.19;;;10.03;100.00
10806;BME280;5455;53.224;6.000;2023-04-15T08:06:05;101458.56;;;10.14;100.00
10806;BME280;5455;53.224;6.000;2023-04-15T08:08:32;101453.31;;;10.21;100.00
10806;BME280;5455;53.224;6.000;2023-04-15T08:10:59;101456.66;;;10.38;100.00
10806;BME280;5455;53.224;6.000;2023-04-15T08:13:26;101471.63;;;10.74;100.00
10806;BME280;5455;53.224;6.000;2023-04-15T08:16:19;101470.13;;;10.76;100.00
10806;BME280;5455;53.224;6.000;2023-04-15T08:18:48;101471.72;;;10.65;100.00
10806;BME280;5455;53.224;6.000;2023-04-15T08:21:16;101471.63;;;10.74;100.00
10806;BME280;5455;53.224;6.000;2023-04-15T08:23:46;101475.41;;;10.81;100.00
10806;BME280;5455;53.224;6.000;2023-04-15T08:26:13;101471.16;;;10.96;100.00
10806;BME280;5455;53.224;6.000;2023-04-15T08:28:41;101479.31;;;11.04;100.00
10806;BME280;5455;53.224;6.000;2023-04-15T08:31:08;101484.94;;;10.96;100.00
10806;BME280;5455;53.224;6.000;2023-04-15T08:33:35;101490.22;;;10.77;100.00
10806;BME280;5455;53.224;6.000;2023-04-15T08:36:03;101482.31;;;10.63;100.00
10806;BME280;5455;53.224;6.000;2023-04-15T08:38:30;101484.69;;;10.52;100.00
10806;BME280;5455;53.224;6.000;2023-04-15T08:40:59;101498.38;;;10.61;100.00
10806;BME280;5455;53.224;6.000;2023-04-15T08:43:34;101497.00;;;10.55;100.00
10806;BME280;5455;53.224;6.000;2023-04-15T08:46:08;101498.13;;;10.42;100.00
10806;BME280;5455;53.224;6.000;2023-04-15T08:48:37;101491.78;;;10.29;100.00
10806;BME280;5455;53.224;6.000;2023-04-15T08:51:06;101501.88;;;10.25;100.00
10806;BME280;5455;53.224;6.000;2023-04-15T08:53:34;101507.75;;;10.24;100.00
10806;BME280;5455;53.224;6.000;2023-04-15T08:56:04;101521.53;;;10.24;100.00
10806;BME280;5455;53.224;6.000;2023-04-15T08:58:34;101513.44;;;10.19;100.00
10806;BME280;5455;53.224;6.000;2023-04-15T09:01:02;101520.72;;;10.23;100.00
10806;BME280;5455;53.224;6.000;2023-04-15T09:03:29;101530.13;;;10.22;100.00
10806;BME280;5455;53.224;6.000;2023-04-15T09:05:56;101523.22;;;10.16;100.00
10806;BME280;5455;53.224;6.000;2023-04-15T09:08:24;101518.69;;;10.12;100.00
10806;BME280;5455;53.224;6.000;2023-04-15T09:10:52;101531.22;;;10.09;100.00
10806;BME280;5455;53.224;6.000;2023-04-15T09:13:20;101546.44;;;10.07;100.00
10806;BME280;5455;53.224;6.000;2023-04-15T09:15:47;101531.06;;;10.06;100.00
10806;BME280;5455;53.224;6.000;2023-04-15T09:18:29;101541.81;;;10.19;100.00
10806;BME280;5455;53.224;6.000;2023-04-15T09:21:13;101547.34;;;10.19;100.00
10806;BME280;5455;53.224;6.000;2023-04-15T09:23:53;101552.97;;;10.23;100.00
10806;BME280;5455;53.224;6.000;2023-04-15T09:26:34;101550.94;;;10.32;100.00
10806;BME280;5455;53.224;6.000;2023-04-15T09:31:32;101557.72;;;10.91;100.00
10806;BME280;5455;53.224;6.000;2023-04-15T09:33:59;101545.84;;;10.67;100.00
10806;BME280;5455;53.224;6.000;2023-04-15T09:36:27;101557.50;;;10.39;100.00
10806;BME280;5455;53.224;6.000;2023-04-15T09:38:58;101554.00;;;10.51;100.00
10806;BME280;5455;53.224;6.000;2023-04-15T09:41:26;101559.38;;;10.47;100.00
10806;BME280;5455;53.224;6.000;2023-04-15T09:43:54;101552.91;;;10.43;100.00
10806;BME280;5455;53.224;6.000;2023-04-15T09:46:42;101569.28;;;10.73;100.00
10806;BME280;5455;53.224;6.000;2023-04-15T09:49:11;101572.66;;;10.78;100.00
10806;BME280;5455;53.224;6.000;2023-04-15T09:51:38;101570.81;;;10.94;100.00
10806;BME280;5455;53.224;6.000;2023-04-15T09:54:05;101578.38;;;10.73;100.00
10806;BME280;5455;53.224;6.000;2023-04-15T09:56:37;101576.88;;;10.76;100.00
10806;BME280;5455;53.224;6.000;2023-04-15T09:59:07;101579.69;;;11.24;100.00
10806;BME280;5455;53.224;6.000;2023-04-15T10:01:35;101580.72;;;11.44;100.00
10806;BME280;5455;53.224;6.000;2023-04-15T10:04:03;101572.56;;;11.35;100.00
10806;BME280;5455;53.224;6.000;2023-04-15T10:06:32;101571.53;;;11.28;100.00
10806;BME280;5455;53.224;6.000;2023-04-15T10:09:00;101580.72;;;11.32;100.00
10806;BME280;5455;53.224;6.000;2023-04-15T10:11:28;101575.78;;;11.13;100.00
10806;BME280;5455;53.224;6.000;2023-04-15T10:13:57;101574.63;;;11.14;100.00
10806;BME280;5455;53.224;6.000;2023-04-15T10:16:27;101580.84;;;11.11;100.00
10806;BME280;5455;53.224;6.000;2023-04-15T10:18:55;101567.38;;;10.97;100.00
10806;BME280;5455;53.224;6.000;2023-04-15T10:21:23;101580.25;;;11.30;100.00
10806;BME280;5455;53.224;6.000;2023-04-15T10:23:50;101574.84;;;11.09;100.00
10806;BME280;5455;53.224;6.000;2023-04-15T10:26:18;101567.38;;;10.97;100.00
10806;BME280;5455;53.224;6.000;2023-04-15T10:28:46;101588.28;;;10.86;100.00
10806;BME280;5455;53.224;6.000;2023-04-15T10:31:14;101582.91;;;10.90;100.00
10806;BME280;5455;53.224;6.000;2023-04-15T10:33:43;101595.06;;;10.77;100.00
10806;BME280;5455;53.224;6.000;2023-04-15T10:36:10;101597.59;;;10.82;100.00
10806;BME280;5455;53.224;6.000;2023-04-15T10:38:42;101599.47;;;10.90;100.00
10806;BME280;5455;53.224;6.000;2023-04-15T10:41:19;101601.16;;;10.94;100.00
10806;BME280;5455;53.224;6.000;2023-04-15T10:43:53;101597.97;;;11.04;100.00
10806;BME280;5455;53.224;6.000;2023-04-15T10:46:22;101604.19;;;11.01;100.00
10806;BME280;5455;53.224;6.000;2023-04-15T10:48:52;101596.03;;;11.05;100.00
10806;BME280;5455;53.224;6.000;2023-04-15T10:51:27;101605.91;;;11.06;100.00
10806;BME280;5455;53.224;6.000;2023-04-15T10:54:00;101602.09;;;10.86;100.00
10806;BME280;5455;53.224;6.000;2023-04-15T10:56:28;101610.38;;;10.86;100.00
10806;BME280;5455;53.224;6.000;2023-04-15T10:58:58;101599.19;;;10.83;100.00
10806;BME280;5455;53.224;6.000;2023-04-15T11:01:54;101609.19;;;10.75;100.00
10806;BME280;5455;53.224;6.000;2023-04-15T11:12:40;101621.78;;;11.21;100.00
10806;BME280;5455;53.224;6.000;2023-04-15T11:18:23;101620.03;;;10.92;100.00
10806;BME280;5455;53.224;6.000;2023-04-15T11:21:01;101622.16;;;10.63;100.00
10806;BME280;5455;53.224;6.000;2023-04-15T11:23:34;101626.03;;;10.62;100.00
10806;BME280;5455;53.224;6.000;2023-04-15T11:26:03;101623.56;;;10.36;100.00
10806;BME280;5455;53.224;6.000;2023-04-15T11:28:32;101633.34;;;10.25;100.00
10806;BME280;5455;53.224;6.000;2023-04-15T11:31:13;101634.31;;;10.29;100.00
10806;BME280;5455;53.224;6.000;2023-04-15T11:33:45;101648.16;;;10.20;100.00
10806;BME280;5455;53.224;6.000;2023-04-15T11:36:13;101641.06;;;10.11;100.00
10806;BME280;5455;53.224;6.000;2023-04-15T11:38:46;101660.81;;;10.13;100.00
10806;BME280;5455;53.224;6.000;2023-04-15T11:41:13;101647.72;;;10.10;100.00
10806;BME280;5455;53.224;6.000;2023-04-15T11:43:41;101650.22;;;10.03;100.00
10806;BME280;5455;53.224;6.000;2023-04-15T11:46:08;101648.22;;;10.12;100.00
10806;BME280;5455;53.224;6.000;2023-04-15T11:48:35;101653.91;;;10.07;100.00
10806;BME280;5455;53.224;6.000;2023-04-15T11:51:04;101655.66;;;9.90;100.00
10806;BME280;5455;53.224;6.000;2023-04-15T11:53:44;101664.59;;;9.87;100.00
10806;BME280;5455;53.224;6.000;2023-04-15T11:56:22;101663.56;;;9.92;100.00
10806;BME280;5455;53.224;6.000;2023-04-15T11:58:55;101674.34;;;9.85;100.00
10806;BME280;5455;53.224;6.000;2023-04-15T12:01:35;101678.31;;;9.96;100.00
10806;BME280;5455;53.224;6.000;2023-04-15T12:04:13;101688.09;;;10.14;100.00
10806;BME280;5455;53.224;6.000;2023-04-15T12:06:41;101681.31;;;10.32;100.00
10806;BME280;5455;53.224;6.000;2023-04-15T12:09:10;101676.44;;;10.09;100.00
10806;BME280;5455;53.224;6.000;2023-04-15T12:11:57;101680.47;;;10.11;100.00
10806;BME280;5455;53.224;6.000;2023-04-15T12:14:26;101686.56;;;9.96;100.00
10806;BME280;5455;53.224;6.000;2023-04-15T12:16:57;101680.09;;;9.92;100.00
10806;BME280;5455;53.224;6.000;2023-04-15T12:19:26;101689.19;;;9.92;100.00
10806;BME280;5455;53.224;6.000;2023-04-15T12:21:59;101688.44;;;9.83;100.00
10806;BME280;5455;53.224;6.000;2023-04-15T12:24:28;101692.56;;;9.69;100.00
10806;BME280;5455;53.224;6.000;2023-04-15T12:26:59;101695.06;;;9.82;100.00
10806;BME280;5455;53.224;6.000;2023-04-15T12:29:30;101687.69;;;9.95;100.00
10806;BME280;5455;53.224;6.000;2023-04-15T12:32:04;101704.09;;;9.91;100.00
10806;BME280;5455;53.224;6.000;2023-04-15T12:34:34;101716.94;;;9.87;100.00
10806;BME280;5455;53.224;6.000;2023-04-15T12:37:04;101707.81;;;9.66;100.00
10806;BME280;5455;53.224;6.000;2023-04-15T12:39:40;101719.44;;;9.72;100.00
10806;BME280;5455;53.224;6.000;2023-04-15T12:42:08;101713.41;;;9.78;100.00
10806;BME280;5455;53.224;6.000;2023-04-15T12:44:36;101718.53;;;9.59;100.00
10806;BME280;5455;53.224;6.000;2023-04-15T12:47:03;101726.31;;;9.57;100.00
10806;BME280;5455;53.224;6.000;2023-04-15T12:49:31;101712.03;;;9.64;100.00
10806;BME280;5455;53.224;6.000;2023-04-15T12:51:59;101717.34;;;9.69;100.00
10806;BME280;5455;53.224;6.000;2023-04-15T12:54:28;101714.78;;;9.93;100.00
10806;BME280;5455;53.224;6.000;2023-04-15T12:56:56;101725.69;;;10.10;100.00
10806;BME280;5455;53.224;6.000;2023-04-15T12:59:24;101719.19;;;9.85;100.00
10806;BME280;5455;53.224;6.000;2023-04-15T13:01:51;101718.00;;;9.95;100.00
10806;BME280;5455;53.224;6.000;2023-04-15T13:04:20;101717.53;;;9.64;100.00
10806;BME280;5455;53.224;6.000;2023-04-15T13:06:48;101727.69;;;9.72;100.00
10806;BME280;5455;53.224;6.000;2023-04-15T13:09:15;101723.31;;;9.71;100.00
10806;BME280;5455;53.224;6.000;2023-04-15T13:11:42;101723.06;;;9.64;100.00
10806;BME280;5455;53.224;6.000;2023-04-15T13:14:10;101731.97;;;9.90;100.00
10806;BME280;5455;53.224;6.000;2023-04-15T13:16:39;101737.63;;;9.93;100.00
10806;BME280;5455;53.224;6.000;2023-04-15T13:19:06;101735.69;;;10.23;100.00